createdAt,value
2022-11-24T00:00:36.019Z,100
2022-11-24T00:10:36.861Z,100
2022-11-24T00:20:37.633Z,100
2022-11-24T00:30:37.821Z,100
2022-11-24T00:40:38.657Z,100
2022-11-24T00:50:38.964Z,100
2022-11-24T01:00:39.565Z,100
2022-11-24T01:10:40.159Z,100
2022-11-24T01:20:41.085Z,100
2022-11-24T01:30:41.630Z,100
2022-11-24T01:40:42.510Z,100
2022-11-24T01:50:42.919Z,100
2022-11-24T02:00:43.626Z,100
2022-11-24T02:10:43.792Z,100
2022-11-24T02:20:44.494Z,100
2022-11-24T02:30:45.135Z,100
2022-11-24T02:40:45.857Z,100
2022-11-24T02:50:46.757Z,100
2022-11-24T03:00:47.258Z,99
2022-11-24T03:10:47.638Z,99
2022-11-24T03:20:48.105Z,99
2022-11-24T03:30:49.025Z,99
2022-11-24T03:40:49.815Z,99
2022-11-24T03:50:50.430Z,99
2022-11-24T04:00:51.539Z,99
2022-11-24T04:10:52.633Z,98
2022-11-24T04:20:53.703Z,98
2022-11-24T04:30:53.904Z,98
2022-11-24T04:40:54.717Z,97
2022-11-24T04:50:55.362Z,97
2022-11-24T05:00:56.216Z,98
2022-11-24T05:10:56.807Z,99
2022-11-24T05:20:57.357Z,100
2022-11-24T05:30:58.123Z,100
2022-11-24T05:50:59.646Z,100
2022-11-24T06:41:01.662Z,100
2022-11-24T07:11:03.398Z,99
2022-11-24T07:31:04.433Z,99
2022-11-24T07:41:04.745Z,97
2022-11-24T08:01:06.050Z,96
2022-11-24T08:11:06.552Z,95
2022-11-24T08:21:07.156Z,95
2022-11-24T08:31:07.479Z,94
2022-11-24T08:41:08.293Z,94
2022-11-24T08:51:09.039Z,94
2022-11-24T09:01:09.699Z,94
2022-11-24T09:11:10.150Z,94
2022-11-24T09:21:11.245Z,94
2022-11-24T09:31:11.668Z,94
2022-11-24T09:41:12.451Z,94
2022-11-24T09:51:12.635Z,94
2022-11-24T10:01:13.734Z,95
2022-11-24T10:11:14.604Z,95
2022-11-24T10:21:15.614Z,94
2022-11-24T10:31:15.799Z,95
2022-11-24T10:41:16.319Z,94
2022-11-24T10:51:16.919Z,95
2022-11-24T11:01:17.666Z,95
2022-11-24T11:11:18.535Z,94
2022-11-24T11:21:19.370Z,94
2022-11-24T11:31:21.645Z,93
2022-11-24T11:41:20.177Z,94
2022-11-24T12:01:21.763Z,90
2022-11-24T12:11:22.508Z,88
2022-11-24T12:21:26.562Z,89
2022-11-24T12:31:24.117Z,89
2022-11-24T12:41:41.499Z,89
2022-11-24T12:51:25.312Z,88
2022-11-24T13:11:26.416Z,88
2022-11-24T13:21:27.121Z,87
2022-11-24T13:31:27.668Z,86
2022-11-24T14:01:29.806Z,85
2022-11-24T14:11:30.042Z,85
2022-11-24T14:31:31.763Z,84
2022-11-24T14:41:32.453Z,85
2022-11-24T14:51:33.256Z,86
2022-11-24T15:11:34.361Z,88
2022-11-24T15:31:35.529Z,90
2022-11-24T15:51:36.429Z,91
2022-11-24T16:21:38.602Z,93
2022-11-24T16:31:39.229Z,94
2022-11-24T16:51:40.915Z,96
2022-11-24T17:11:42.348Z,97
2022-11-24T17:21:43.418Z,98
2022-11-24T17:31:44.562Z,98
2022-11-24T17:41:44.685Z,99
2022-11-24T17:51:45.774Z,99
2022-11-24T18:11:46.979Z,100
2022-11-24T18:31:48.361Z,98
2022-11-24T18:41:49.011Z,96
2022-11-24T19:01:51.294Z,94
2022-11-24T19:41:53.514Z,94
2022-11-24T20:11:55.464Z,94
2022-11-24T20:21:56.442Z,94
2022-11-24T21:01:58.360Z,94
2022-11-24T22:32:03.806Z,97
2022-11-24T23:32:07.756Z,100
